Time,TemperatureF,DewpointF,PressureIn,WindDirection,WindDirectionDegrees,WindSpeedMPH,WindSpeedGustMPH,Humidity,HourlyPrecipIn,Conditions,Clouds,dailyrainin,SoftwareType,DateUTC
2013-07-15 00:00:00,50.7,49.1,29.81,NNW,328,0.0,3.0,94,0.03,,,0.06,meteohub,2013-07-15 06:00:00,
2013-07-15 00:05:00,50.7,49.3,29.81,NNW,328,0.0,3.0,95,0.03,,,0.06,meteohub,2013-07-15 06:05:00,
2013-07-15 00:10:00,50.7,49.3,29.81,NNW,328,0.0,1.0,95,0.02,,,0.06,meteohub,2013-07-15 06:10:00,
2013-07-15 00:15:00,50.7,49.3,29.81,NNW,327,0.0,0.0,95,0.02,,,0.06,meteohub,2013-07-15 06:15:00,
2013-07-15 00:20:00,50.5,48.9,29.81,NNW,332,2.0,2.0,94,0.02,,,0.06,meteohub,2013-07-15 06:20:00,
2013-07-15 00:26:00,50.5,48.9,29.82,NNW,327,1.0,2.0,94,0.01,,,0.06,meteohub,2013-07-15 06:26:00,
2013-07-15 00:31:00,50.5,49.1,29.81,NW,308,1.0,2.0,95,0.01,,,0.06,meteohub,2013-07-15 06:31:00,
2013-07-15 00:36:00,50.5,49.1,29.81,NW,321,0.0,2.0,95,0.02,,,0.07,meteohub,2013-07-15 06:36:00,
2013-07-15 00:41:00,50.7,49.3,29.81,NW,319,2.0,4.0,95,0.03,,,0.08,meteohub,2013-07-15 06:41:00,
2013-07-15 00:46:00,50.7,49.3,29.81,NW,321,1.0,4.0,95,0.02,,,0.08,meteohub,2013-07-15 06:46:00,
2013-07-15 00:51:00,50.7,49.3,29.80,NNW,337,0.0,4.0,95,0.03,,,0.09,meteohub,2013-07-15 06:51:00,
2013-07-15 00:56:00,50.7,49.3,29.80,NNW,333,0.0,4.0,95,0.03,,,0.09,meteohub,2013-07-15 06:56:00,
2013-07-15 01:01:00,50.7,49.3,29.80,NNW,329,1.0,3.0,95,0.03,,,0.09,meteohub,2013-07-15 07:01:00,
2013-07-15 01:06:00,50.5,49.1,29.80,NNW,329,1.0,2.0,95,0.03,,,0.09,meteohub,2013-07-15 07:06:00,
2013-07-15 01:11:00,50.5,49.5,29.81,NNW,333,0.0,3.0,96,0.03,,,0.09,meteohub,2013-07-15 07:11:00,
2013-07-15 01:16:00,50.5,49.5,29.81,NW,326,0.0,3.0,96,0.03,,,0.09,meteohub,2013-07-15 07:16:00,
2013-07-15 01:21:00,50.5,49.5,29.81,NNW,333,0.0,3.0,96,0.03,,,0.09,meteohub,2013-07-15 07:21:00,
2013-07-15 01:26:00,50.5,49.5,29.81,NNW,333,0.0,2.0,96,0.03,,,0.09,meteohub,2013-07-15 07:26:00,
2013-07-15 01:31:00,50.5,49.5,29.81,NNW,330,0.0,2.0,96,0.03,,,0.09,meteohub,2013-07-15 07:31:00,
2013-07-15 01:36:00,50.5,49.5,29.81,NNW,330,0.0,2.0,96,0.03,,,0.10,meteohub,2013-07-15 07:36:00,
2013-07-15 01:41:00,50.5,49.6,29.81,NNW,330,0.0,2.0,97,0.02,,,0.10,meteohub,2013-07-15 07:41:00,
2013-07-15 01:47:00,50.7,49.8,29.81,NNW,330,0.0,1.0,97,0.01,,,0.10,meteohub,2013-07-15 07:47:00,
2013-07-15 01:52:00,50.5,49.5,29.81,SSE,150,0.0,1.0,96,0.02,,,0.11,meteohub,2013-07-15 07:52:00,
2013-07-15 01:57:00,50.5,49.6,29.81,SSE,150,0.0,1.0,97,0.02,,,0.11,meteohub,2013-07-15 07:57:00,
2013-07-15 02:02:00,50.4,49.3,29.81,SSW,212,0.0,1.0,96,0.03,,,0.12,meteohub,2013-07-15 08:02:00,
2013-07-15 02:07:00,50.4,49.5,29.81,West,261,0.0,2.0,97,0.03,,,0.12,meteohub,2013-07-15 08:07:00,
2013-07-15 02:12:00,50.5,49.5,29.81,WNW,296,2.0,4.0,96,0.04,,,0.13,meteohub,2013-07-15 08:12:00,
2013-07-15 02:17:00,50.7,49.6,29.81,NW,313,3.0,10.0,96,0.04,,,0.13,meteohub,2013-07-15 08:17:00,
2013-07-15 02:22:00,50.9,49.5,29.81,NW,320,0.0,10.0,95,0.04,,,0.13,meteohub,2013-07-15 08:22:00,
2013-07-15 02:27:00,50.7,49.6,29.81,NNW,330,1.0,10.0,96,0.04,,,0.13,meteohub,2013-07-15 08:27:00,
2013-07-15 02:32:00,50.7,49.6,29.81,WNW,302,1.0,9.0,96,0.04,,,0.14,meteohub,2013-07-15 08:32:00,
2013-07-15 02:37:00,50.7,49.6,29.81,WNW,302,2.0,4.0,96,0.04,,,0.14,meteohub,2013-07-15 08:37:00,
2013-07-15 02:42:00,50.7,49.6,29.81,WNW,296,4.0,5.0,96,0.04,,,0.14,meteohub,2013-07-15 08:42:00,
2013-07-15 02:47:00,50.7,49.6,29.80,NNW,327,3.0,6.0,96,0.04,,,0.14,meteohub,2013-07-15 08:47:00,
2013-07-15 02:52:00,50.7,49.6,29.80,NW,321,0.0,6.0,96,0.03,,,0.14,meteohub,2013-07-15 08:52:00,
2013-07-15 02:57:00,50.7,49.6,29.80,NW,320,0.0,6.0,96,0.04,,,0.15,meteohub,2013-07-15 08:57:00,
2013-07-15 03:02:00,50.7,49.6,29.80,SW,236,0.0,5.0,96,0.03,,,0.15,meteohub,2013-07-15 09:02:00,
2013-07-15 03:07:00,50.5,49.5,29.80,SSE,153,0.0,1.0,96,0.03,,,0.15,meteohub,2013-07-15 09:07:00,
2013-07-15 03:12:00,50.7,49.6,29.80,SSE,158,0.0,2.0,96,0.02,,,0.15,meteohub,2013-07-15 09:12:00,
2013-07-15 03:17:00,50.9,49.8,29.79,NNW,330,2.0,4.0,96,0.02,,,0.15,meteohub,2013-07-15 09:17:00,
2013-07-15 03:22:00,50.9,49.5,29.79,WNW,287,0.0,4.0,95,0.02,,,0.15,meteohub,2013-07-15 09:22:00,
2013-07-15 03:27:00,50.9,49.5,29.79,WNW,287,0.0,4.0,95,0.02,,,0.15,meteohub,2013-07-15 09:27:00,
2013-07-15 03:32:00,51.1,49.6,29.79,NW,306,2.0,2.0,95,0.01,,,0.15,meteohub,2013-07-15 09:32:00,
2013-07-15 03:37:00,51.1,49.6,29.79,NNW,331,1.0,6.0,95,0.02,,,0.16,meteohub,2013-07-15 09:37:00,
2013-07-15 03:42:00,51.1,50.0,29.80,NNW,332,0.0,6.0,96,0.02,,,0.16,meteohub,2013-07-15 09:42:00,
2013-07-15 03:47:00,51.1,50.0,29.80,NNW,331,0.0,5.0,96,0.02,,,0.16,meteohub,2013-07-15 09:47:00,
2013-07-15 03:52:00,51.1,50.0,29.79,NNW,332,0.0,1.0,96,0.02,,,0.16,meteohub,2013-07-15 09:52:00,
2013-07-15 03:57:00,50.9,49.8,29.79,SW,224,0.0,0.0,96,0.01,,,0.16,meteohub,2013-07-15 09:57:00,
2013-07-15 04:02:00,50.7,49.6,29.79,NW,305,1.0,5.0,96,0.01,,,0.16,meteohub,2013-07-15 10:02:00,
2013-07-15 04:07:00,50.7,49.6,29.79,NNW,346,1.0,5.0,96,0.01,,,0.16,meteohub,2013-07-15 10:07:00,
2013-07-15 04:12:00,50.7,49.6,29.79,NW,322,0.0,5.0,96,0.01,,,0.16,meteohub,2013-07-15 10:12:00,
2013-07-15 04:17:00,50.7,49.6,29.79,NW,322,0.0,3.0,96,0.01,,,0.16,meteohub,2013-07-15 10:17:00,
2013-07-15 04:22:00,50.7,49.6,29.79,NW,311,0.0,2.0,96,0.01,,,0.16,meteohub,2013-07-15 10:22:00,
2013-07-15 04:27:00,50.7,49.6,29.79,NW,314,0.0,3.0,96,0.01,,,0.16,meteohub,2013-07-15 10:27:00,
2013-07-15 04:32:00,50.7,49.6,29.79,NW,314,0.0,3.0,96,0.00,,,0.16,meteohub,2013-07-15 10:32:00,
2013-07-15 04:37:00,50.7,49.6,29.79,NW,313,0.0,3.0,96,0.00,,,0.16,meteohub,2013-07-15 10:37:00,
2013-07-15 04:42:00,50.7,49.6,29.79,NW,321,0.0,0.0,96,0.00,,,0.16,meteohub,2013-07-15 10:42:00,
2013-07-15 04:47:00,50.5,49.5,29.79,NW,321,0.0,3.0,96,0.00,,,0.16,meteohub,2013-07-15 10:47:00,
2013-07-15 04:52:00,50.5,49.6,29.79,NW,320,0.0,3.0,97,0.00,,,0.16,meteohub,2013-07-15 10:52:00,
2013-07-15 04:57:00,50.5,49.6,29.79,NW,324,0.0,3.0,97,0.00,,,0.16,meteohub,2013-07-15 10:57:00,
2013-07-15 05:02:00,50.5,49.6,29.79,NW,325,0.0,3.0,97,0.00,,,0.16,meteohub,2013-07-15 11:02:00,
2013-07-15 05:07:00,50.5,49.6,29.79,NNW,336,1.0,3.0,97,0.00,,,0.16,meteohub,2013-07-15 11:07:00,
2013-07-15 05:12:00,50.5,49.6,29.79,NW,319,0.0,9.0,97,0.00,,,0.16,meteohub,2013-07-15 11:12:00,
2013-07-15 05:17:00,50.5,49.6,29.80,NNW,331,0.0,9.0,97,0.00,,,0.16,meteohub,2013-07-15 11:17:00,
2013-07-15 05:22:00,50.5,49.6,29.80,West,269,0.0,5.0,97,0.00,,,0.16,meteohub,2013-07-15 11:22:00,
2013-07-15 05:27:00,50.5,49.6,29.79,NNW,335,0.0,5.0,97,0.01,,,0.17,meteohub,2013-07-15 11:27:00,
2013-07-15 05:32:00,50.5,49.6,29.80,NW,308,0.0,5.0,97,0.01,,,0.17,meteohub,2013-07-15 11:32:00,
2013-07-15 05:37:00,50.5,49.6,29.80,NNW,347,1.0,5.0,97,0.01,,,0.17,meteohub,2013-07-15 11:37:00,
2013-07-15 05:42:00,50.5,49.6,29.80,NNW,343,0.0,3.0,97,0.02,,,0.18,meteohub,2013-07-15 11:42:00,
2013-07-15 05:47:00,50.5,49.6,29.80,NW,311,1.0,3.0,97,0.06,,,0.22,meteohub,2013-07-15 11:47:00,
2013-07-15 05:52:00,50.5,49.6,29.81,NW,318,2.0,3.0,97,0.06,,,0.22,meteohub,2013-07-15 11:52:00,
2013-07-15 05:57:00,50.5,49.6,29.81,NNW,340,3.0,4.0,97,0.07,,,0.23,meteohub,2013-07-15 11:57:00,
2013-07-15 06:02:00,50.4,49.5,29.81,NNW,336,2.0,4.0,97,0.07,,,0.23,meteohub,2013-07-15 12:02:00,
2013-07-15 06:07:00,50.5,49.6,29.81,NW,325,1.0,4.0,97,0.07,,,0.23,meteohub,2013-07-15 12:07:00,
2013-07-15 06:08:00,50.5,49.6,29.81,NW,324,1.0,4.0,97,0.07,,,0.23,meteohub,2013-07-15 12:08:00,
2013-07-15 06:13:00,50.5,49.6,29.81,NNW,328,0.0,4.0,97,0.07,,,0.23,meteohub,2013-07-15 12:13:00,
2013-07-15 06:18:00,50.5,49.6,29.81,NW,325,0.0,4.0,97,0.07,,,0.23,meteohub,2013-07-15 12:18:00,
2013-07-15 06:23:00,50.5,49.6,29.81,NW,314,1.0,4.0,97,0.06,,,0.23,meteohub,2013-07-15 12:23:00,
2013-07-15 06:28:00,50.5,49.6,29.81,NNW,329,0.0,2.0,97,0.06,,,0.23,meteohub,2013-07-15 12:28:00,
2013-07-15 06:33:00,50.5,49.6,29.81,WNW,287,0.0,2.0,97,0.06,,,0.23,meteohub,2013-07-15 12:33:00,
2013-07-15 06:38:00,50.5,49.6,29.81,NW,315,1.0,2.0,97,0.07,,,0.24,meteohub,2013-07-15 12:38:00,
2013-07-15 06:43:00,50.5,49.6,29.81,NNW,327,0.0,2.0,97,0.04,,,0.24,meteohub,2013-07-15 12:43:00,
2013-07-15 06:48:00,50.7,49.8,29.82,NW,324,0.0,2.0,97,0.02,,,0.24,meteohub,2013-07-15 12:48:00,
2013-07-15 06:53:00,50.5,49.6,29.82,NW,311,1.0,2.0,97,0.02,,,0.24,meteohub,2013-07-15 12:53:00,
2013-07-15 06:58:00,50.5,49.6,29.82,NNW,333,0.0,2.0,97,0.01,,,0.24,meteohub,2013-07-15 12:58:00,
2013-07-15 07:04:00,50.5,49.6,29.82,NW,320,0.0,2.0,97,0.01,,,0.24,meteohub,2013-07-15 13:04:00,
2013-07-15 07:09:00,50.5,49.6,29.82,NW,320,0.0,2.0,97,0.01,,,0.24,meteohub,2013-07-15 13:09:00,
2013-07-15 07:14:00,50.5,49.6,29.82,NW,324,2.0,2.0,97,0.01,,,0.24,meteohub,2013-07-15 13:14:00,
2013-07-15 07:19:00,50.5,49.6,29.83,NW,305,0.0,4.0,97,0.02,,,0.25,meteohub,2013-07-15 13:19:00,
2013-07-15 07:24:00,50.5,49.6,29.83,NW,306,0.0,4.0,97,0.02,,,0.25,meteohub,2013-07-15 13:24:00,
2013-07-15 07:29:00,50.5,49.6,29.83,WNW,300,0.0,4.0,97,0.02,,,0.25,meteohub,2013-07-15 13:29:00,
2013-07-15 07:34:00,50.5,49.6,29.83,NNW,337,0.0,5.0,97,0.02,,,0.25,meteohub,2013-07-15 13:34:00,
2013-07-15 07:39:00,50.5,49.6,29.83,NNW,337,2.0,6.0,97,0.01,,,0.25,meteohub,2013-07-15 13:39:00,
2013-07-15 07:44:00,50.5,49.6,29.83,NW,323,0.0,6.0,97,0.01,,,0.25,meteohub,2013-07-15 13:44:00,
2013-07-15 07:49:00,50.5,49.6,29.83,NNW,329,1.0,6.0,97,0.01,,,0.25,meteohub,2013-07-15 13:49:00,
2013-07-15 07:54:00,50.7,50.2,29.83,NW,325,1.0,4.0,98,0.01,,,0.25,meteohub,2013-07-15 13:54:00,
2013-07-15 07:59:00,50.7,49.8,29.84,NNW,328,0.0,3.0,97,0.01,,,0.25,meteohub,2013-07-15 13:59:00,
2013-07-15 08:05:00,50.7,50.2,29.84,NW,317,1.0,3.0,98,0.01,,,0.25,meteohub,2013-07-15 14:05:00,
2013-07-15 08:10:00,50.7,49.8,29.84,NW,311,0.0,1.0,97,0.01,,,0.25,meteohub,2013-07-15 14:10:00,
2013-07-15 08:15:00,50.7,50.2,29.84,NW,325,1.0,2.0,98,0.00,,,0.25,meteohub,2013-07-15 14:15:00,
2013-07-15 08:20:00,50.9,50.4,29.85,NW,325,0.0,2.0,98,0.01,,,0.26,meteohub,2013-07-15 14:20:00,
2013-07-15 08:25:00,50.9,50.0,29.84,NW,304,0.0,2.0,97,0.01,,,0.26,meteohub,2013-07-15 14:25:00,
2013-07-15 08:30:00,50.9,50.4,29.85,NW,323,1.0,2.0,98,0.01,,,0.26,meteohub,2013-07-15 14:30:00,
2013-07-15 08:35:00,51.1,50.5,29.84,NNW,330,0.0,5.0,98,0.01,,,0.26,meteohub,2013-07-15 14:35:00,
2013-07-15 08:40:00,51.3,50.7,29.84,NW,321,0.0,5.0,98,0.01,,,0.26,meteohub,2013-07-15 14:40:00,
2013-07-15 08:46:00,51.1,50.2,29.85,NW,324,1.0,5.0,97,0.01,,,0.26,meteohub,2013-07-15 14:46:00,
2013-07-15 08:51:00,51.3,50.4,29.85,NW,315,0.0,3.0,97,0.01,,,0.26,meteohub,2013-07-15 14:51:00,
2013-07-15 08:56:00,51.3,50.7,29.85,NNW,329,1.0,3.0,98,0.01,,,0.26,meteohub,2013-07-15 14:56:00,
2013-07-15 09:01:00,51.3,50.7,29.85,NNW,328,0.0,3.0,98,0.01,,,0.26,meteohub,2013-07-15 15:01:00,
2013-07-15 09:06:00,51.4,50.9,29.85,NW,313,0.0,5.0,98,0.02,,,0.27,meteohub,2013-07-15 15:06:00,
2013-07-15 09:12:00,51.4,50.9,29.85,NW,323,1.0,5.0,98,0.02,,,0.27,meteohub,2013-07-15 15:12:00,
2013-07-15 09:17:00,51.8,51.3,29.85,NW,316,1.0,5.0,98,0.01,,,0.27,meteohub,2013-07-15 15:17:00,
2013-07-15 09:22:00,51.8,51.3,29.85,NW,316,0.0,2.0,98,0.01,,,0.27,meteohub,2013-07-15 15:22:00,
2013-07-15 09:27:00,52.0,51.4,29.85,NW,316,0.0,2.0,98,0.01,,,0.27,meteohub,2013-07-15 15:27:00,
2013-07-15 09:32:00,51.8,50.9,29.85,WNW,300,0.0,2.0,97,0.01,,,0.27,meteohub,2013-07-15 15:32:00,
2013-07-15 09:38:00,51.6,50.7,29.85,NW,306,0.0,1.0,97,0.01,,,0.27,meteohub,2013-07-15 15:38:00,
2013-07-15 09:43:00,51.8,50.9,29.85,NW,317,1.0,3.0,97,0.01,,,0.27,meteohub,2013-07-15 15:43:00,
2013-07-15 09:48:00,52.0,51.1,29.85,NW,321,1.0,3.0,97,0.01,,,0.27,meteohub,2013-07-15 15:48:00,
2013-07-15 09:54:00,51.8,50.9,29.85,NW,314,0.0,2.0,97,0.01,,,0.27,meteohub,2013-07-15 15:54:00,
2013-07-15 09:59:00,51.6,50.7,29.85,WNW,302,0.0,3.0,97,0.01,,,0.27,meteohub,2013-07-15 15:59:00,
2013-07-15 10:04:00,51.4,50.5,29.85,NW,314,3.0,3.0,97,0.01,,,0.27,meteohub,2013-07-15 16:04:00,
2013-07-15 10:09:00,51.1,50.2,29.86,NW,315,0.0,4.0,97,0.00,,,0.27,meteohub,2013-07-15 16:09:00,
2013-07-15 10:15:00,50.9,50.0,29.86,NW,316,0.0,5.0,97,0.00,,,0.27,meteohub,2013-07-15 16:15:00,
2013-07-15 10:20:00,51.1,50.2,29.86,NW,325,0.0,5.0,97,0.00,,,0.27,meteohub,2013-07-15 16:20:00,
2013-07-15 10:25:00,51.3,50.4,29.86,NW,314,1.0,6.0,97,0.00,,,0.27,meteohub,2013-07-15 16:25:00,
2013-07-15 10:31:00,51.6,50.7,29.86,WNW,287,1.0,6.0,97,0.00,,,0.27,meteohub,2013-07-15 16:31:00,
2013-07-15 10:36:00,52.0,51.1,29.86,NNW,330,0.0,6.0,97,0.00,,,0.27,meteohub,2013-07-15 16:36:00,
2013-07-15 10:42:00,52.2,51.3,29.85,WNW,285,0.0,3.0,97,0.00,,,0.27,meteohub,2013-07-15 16:42:00,
2013-07-15 10:47:00,52.3,51.3,29.86,NW,322,0.0,2.0,96,0.00,,,0.27,meteohub,2013-07-15 16:47:00,
2013-07-15 10:52:00,52.3,50.9,29.86,NNW,332,0.0,4.0,95,0.00,,,0.27,meteohub,2013-07-15 16:52:00,
2013-07-15 10:57:00,52.3,51.3,29.86,NW,322,0.0,4.0,96,0.00,,,0.27,meteohub,2013-07-15 16:57:00,
2013-07-15 11:02:00,52.5,51.4,29.85,NNW,327,2.0,4.0,96,0.00,,,0.27,meteohub,2013-07-15 17:02:00,
2013-07-15 11:08:00,52.3,50.9,29.86,NW,316,0.0,2.0,95,0.00,,,0.27,meteohub,2013-07-15 17:08:00,
2013-07-15 11:13:00,52.2,50.7,29.86,NNW,329,1.0,4.0,95,0.00,,,0.27,meteohub,2013-07-15 17:13:00,
2013-07-15 11:18:00,52.0,50.9,29.86,NW,318,0.0,4.0,96,0.00,,,0.27,meteohub,2013-07-15 17:18:00,
2013-07-15 11:23:00,52.2,51.1,29.87,NW,317,0.0,4.0,96,0.00,,,0.27,meteohub,2013-07-15 17:23:00,
2013-07-15 11:29:00,52.2,50.7,29.87,West,269,0.0,3.0,95,0.00,,,0.27,meteohub,2013-07-15 17:29:00,
2013-07-15 11:34:00,52.3,50.9,29.87,NW,324,0.0,1.0,95,0.00,,,0.27,meteohub,2013-07-15 17:34:00,
2013-07-15 11:40:00,52.3,50.9,29.87,NW,324,0.0,1.0,95,0.00,,,0.27,meteohub,2013-07-15 17:40:00,
2013-07-15 11:45:00,52.2,50.7,29.87,NNW,333,0.0,3.0,95,0.00,,,0.27,meteohub,2013-07-15 17:45:00,
2013-07-15 11:50:00,52.3,50.9,29.87,NW,319,2.0,3.0,95,0.00,,,0.27,meteohub,2013-07-15 17:50:00,
2013-07-15 11:55:00,52.2,50.5,29.87,NNW,336,3.0,5.0,94,0.00,,,0.27,meteohub,2013-07-15 17:55:00,
2013-07-15 12:00:00,51.8,49.8,29.87,NW,322,3.0,6.0,93,0.00,,,0.27,meteohub,2013-07-15 18:00:00,
2013-07-15 12:05:00,51.6,49.6,29.88,NNW,341,3.0,8.0,93,0.00,,,0.27,meteohub,2013-07-15 18:05:00,
2013-07-15 12:11:00,51.6,50.0,29.87,NW,316,1.0,8.0,94,0.00,,,0.27,meteohub,2013-07-15 18:11:00,
2013-07-15 12:16:00,52.0,49.6,29.88,NNW,330,0.0,5.0,92,0.00,,,0.27,meteohub,2013-07-15 18:16:00,
2013-07-15 12:21:00,52.0,49.6,29.88,NW,318,0.0,3.0,92,0.00,,,0.27,meteohub,2013-07-15 18:21:00,
2013-07-15 12:27:00,52.3,50.4,29.88,NNW,327,1.0,4.0,93,0.00,,,0.27,meteohub,2013-07-15 18:27:00,
2013-07-15 12:32:00,52.9,50.0,29.88,NNW,335,4.0,4.0,90,0.00,,,0.27,meteohub,2013-07-15 18:32:00,
2013-07-15 12:37:00,53.4,50.9,29.88,NW,317,6.0,6.0,91,0.00,,,0.27,meteohub,2013-07-15 18:37:00,
2013-07-15 12:42:00,54.3,51.8,29.88,NNW,333,4.0,8.0,91,0.00,,,0.27,meteohub,2013-07-15 18:42:00,
2013-07-15 12:48:00,55.6,51.8,29.88,WNW,284,5.0,8.0,87,0.00,,,0.27,meteohub,2013-07-15 18:48:00,
2013-07-15 12:53:00,56.1,50.7,29.88,WNW,303,6.0,8.0,82,0.00,,,0.27,meteohub,2013-07-15 18:53:00,
2013-07-15 12:58:00,56.8,49.6,29.87,NNW,331,5.0,7.0,77,0.00,,,0.27,meteohub,2013-07-15 18:58:00,
2013-07-15 13:04:00,57.0,51.6,29.88,NNW,333,5.0,11.0,82,0.00,,,0.27,meteohub,2013-07-15 19:04:00,
2013-07-15 13:09:00,57.9,50.7,29.88,NW,311,5.0,11.0,77,0.00,,,0.27,meteohub,2013-07-15 19:09:00,
2013-07-15 13:14:00,58.3,50.0,29.88,NW,305,4.0,11.0,74,0.00,,,0.27,meteohub,2013-07-15 19:14:00,
2013-07-15 13:20:00,58.5,50.9,29.87,NW,314,5.0,11.0,76,0.00,,,0.27,meteohub,2013-07-15 19:20:00,
2013-07-15 13:25:00,58.5,49.1,29.88,WNW,293,1.0,11.0,71,0.00,,,0.27,meteohub,2013-07-15 19:25:00,
2013-07-15 13:31:00,58.3,51.1,29.88,NW,319,5.0,9.0,77,0.00,,,0.27,meteohub,2013-07-15 19:31:00,
2013-07-15 13:36:00,58.5,51.6,29.87,NW,326,3.0,7.0,78,0.00,,,0.27,meteohub,2013-07-15 19:36:00,
2013-07-15 13:41:00,59.2,51.3,29.87,WNW,297,0.0,7.0,75,0.00,,,0.27,meteohub,2013-07-15 19:41:00,
2013-07-15 13:47:00,59.2,52.0,29.87,NNW,334,6.0,6.0,77,0.00,,,0.27,meteohub,2013-07-15 19:47:00,
2013-07-15 13:52:00,58.8,50.2,29.87,NNW,330,9.0,10.0,73,0.00,,,0.27,meteohub,2013-07-15 19:52:00,
2013-07-15 13:57:00,58.8,49.8,29.87,NW,325,6.0,10.0,72,0.00,,,0.27,meteohub,2013-07-15 19:57:00,
2013-07-15 14:03:00,58.8,50.5,29.86,WNW,293,3.0,10.0,74,0.00,,,0.27,meteohub,2013-07-15 20:03:00,
2013-07-15 14:08:00,59.9,50.9,29.86,NW,326,5.0,10.0,72,0.00,,,0.27,meteohub,2013-07-15 20:08:00,
2013-07-15 14:13:00,60.3,50.0,29.85,NNW,336,5.0,9.0,69,0.00,,,0.27,meteohub,2013-07-15 20:13:00,
2013-07-15 14:19:00,60.3,49.3,29.85,NW,320,8.0,11.0,67,0.00,,,0.27,meteohub,2013-07-15 20:19:00,
2013-07-15 14:24:00,60.3,49.6,29.85,NW,312,5.0,11.0,68,0.00,,,0.27,meteohub,2013-07-15 20:24:00,
2013-07-15 14:29:00,60.4,49.5,29.84,WNW,296,8.0,11.0,67,0.00,,,0.27,meteohub,2013-07-15 20:29:00,
2013-07-15 14:34:00,60.1,48.2,29.84,North,351,7.0,11.0,65,0.00,,,0.27,meteohub,2013-07-15 20:34:00,
2013-07-15 14:40:00,59.9,48.0,29.84,NNW,331,4.0,11.0,65,0.00,,,0.27,meteohub,2013-07-15 20:40:00,
2013-07-15 14:45:00,59.5,48.2,29.84,NW,318,3.0,13.0,66,0.00,,,0.27,meteohub,2013-07-15 20:45:00,
2013-07-15 14:51:00,60.1,47.8,29.84,WNW,302,2.0,13.0,64,0.00,,,0.27,meteohub,2013-07-15 20:51:00,
2013-07-15 14:56:00,60.3,48.0,29.84,West,281,3.0,13.0,64,0.00,,,0.27,meteohub,2013-07-15 20:56:00,
2013-07-15 15:02:00,60.3,49.3,29.84,NNW,337,2.0,12.0,67,0.00,,,0.27,meteohub,2013-07-15 21:02:00,
2013-07-15 15:07:00,60.6,48.4,29.83,WNW,300,4.0,12.0,64,0.00,,,0.27,meteohub,2013-07-15 21:07:00,
2013-07-15 15:12:00,60.1,46.2,29.83,NW,308,2.0,12.0,60,0.00,,,0.27,meteohub,2013-07-15 21:12:00,
2013-07-15 15:17:00,60.8,49.8,29.83,NW,316,5.0,10.0,67,0.00,,,0.27,meteohub,2013-07-15 21:17:00,
2013-07-15 15:22:00,61.3,46.9,29.83,NNW,330,5.0,10.0,59,0.00,,,0.27,meteohub,2013-07-15 21:22:00,
2013-07-15 15:27:00,62.2,49.1,29.83,NW,324,5.0,9.0,62,0.00,,,0.27,meteohub,2013-07-15 21:27:00,
2013-07-15 15:33:00,62.1,47.1,29.83,NW,325,4.0,8.0,58,0.00,,,0.27,meteohub,2013-07-15 21:33:00,
2013-07-15 15:38:00,62.1,47.1,29.83,WNW,302,2.0,10.0,58,0.00,,,0.27,meteohub,2013-07-15 21:38:00,
2013-07-15 15:43:00,61.7,46.8,29.83,NW,315,5.0,10.0,58,0.00,,,0.27,meteohub,2013-07-15 21:43:00,
2013-07-15 15:48:00,61.5,47.1,29.83,NNW,334,3.0,11.0,59,0.00,,,0.27,meteohub,2013-07-15 21:48:00,
2013-07-15 15:53:00,61.0,46.0,29.83,NW,307,4.0,11.0,58,0.00,,,0.27,meteohub,2013-07-15 21:53:00,
2013-07-15 15:59:00,60.1,45.7,29.83,NNW,341,6.0,11.0,59,0.00,,,0.27,meteohub,2013-07-15 21:59:00,
2013-07-15 16:04:00,60.3,46.8,29.83,NNW,336,3.0,8.0,61,0.00,,,0.27,meteohub,2013-07-15 22:04:00,
2013-07-15 16:10:00,60.3,46.4,29.82,NNW,343,5.0,12.0,60,0.00,,,0.27,meteohub,2013-07-15 22:10:00,
2013-07-15 16:15:00,59.7,47.1,29.82,NW,319,2.0,12.0,63,0.00,,,0.27,meteohub,2013-07-15 22:15:00,
2013-07-15 16:20:00,59.4,47.7,29.83,NW,318,1.0,12.0,65,0.00,,,0.27,meteohub,2013-07-15 22:20:00,
2013-07-15 16:26:00,59.4,48.4,29.82,NNW,330,1.0,11.0,67,0.00,,,0.27,meteohub,2013-07-15 22:26:00,
2013-07-15 16:31:00,59.7,48.7,29.82,NW,315,1.0,8.0,67,0.00,,,0.27,meteohub,2013-07-15 22:31:00,
2013-07-15 16:37:00,59.2,46.2,29.82,NNW,334,7.0,7.0,62,0.00,,,0.27,meteohub,2013-07-15 22:37:00,
2013-07-15 16:42:00,58.8,46.6,29.82,NW,319,4.0,9.0,64,0.00,,,0.27,meteohub,2013-07-15 22:42:00,
2013-07-15 16:47:00,59.2,46.2,29.82,NW,324,3.0,9.0,62,0.00,,,0.27,meteohub,2013-07-15 22:47:00,
2013-07-15 16:52:00,59.2,46.9,29.81,WNW,298,3.0,9.0,64,0.00,,,0.27,meteohub,2013-07-15 22:52:00,
2013-07-15 16:57:00,60.3,48.0,29.81,West,277,0.0,5.0,64,0.00,,,0.27,meteohub,2013-07-15 22:57:00,
2013-07-15 17:03:00,60.6,48.4,29.81,WNW,287,0.0,7.0,64,0.00,,,0.27,meteohub,2013-07-15 23:03:00,
2013-07-15 17:08:00,60.6,48.7,29.81,NW,319,2.0,7.0,65,0.00,,,0.27,meteohub,2013-07-15 23:08:00,
2013-07-15 17:14:00,61.3,49.1,29.81,NW,318,0.0,7.0,64,0.00,,,0.27,meteohub,2013-07-15 23:14:00,
2013-07-15 17:19:00,61.5,48.7,29.80,NE,49,0.0,6.0,63,0.00,,,0.27,meteohub,2013-07-15 23:19:00,
2013-07-15 17:25:00,61.0,49.5,29.81,NNW,345,5.0,6.0,66,0.00,,,0.27,meteohub,2013-07-15 23:25:00,
2013-07-15 17:30:00,60.6,49.3,29.81,NW,323,6.0,6.0,66,0.00,,,0.27,meteohub,2013-07-15 23:30:00,
2013-07-15 17:35:00,61.0,50.0,29.81,NW,323,2.0,8.0,67,0.00,,,0.27,meteohub,2013-07-15 23:35:00,
2013-07-15 17:40:00,61.2,48.9,29.81,WNW,291,1.0,8.0,64,0.00,,,0.27,meteohub,2013-07-15 23:40:00,
2013-07-15 17:46:00,61.5,48.7,29.81,NW,314,2.0,7.0,63,0.00,,,0.27,meteohub,2013-07-15 23:46:00,
2013-07-15 17:51:00,60.8,49.8,29.81,SSW,211,0.0,7.0,67,0.00,,,0.27,meteohub,2013-07-15 23:51:00,
2013-07-15 17:57:00,60.1,49.1,29.81,NNE,23,2.0,6.0,67,0.00,,,0.27,meteohub,2013-07-15 23:57:00,
2013-07-15 18:02:00,58.8,48.7,29.81,West,267,2.0,6.0,69,0.00,,,0.27,meteohub,2013-07-16 00:02:00,
2013-07-15 18:07:00,58.3,48.2,29.81,WNW,300,0.0,6.0,69,0.00,,,0.00,meteohub,2013-07-16 00:07:00,
2013-07-15 18:12:00,58.1,48.0,29.81,WNW,300,3.0,6.0,69,0.00,,,0.00,meteohub,2013-07-16 00:12:00,
2013-07-15 18:17:00,57.6,47.5,29.81,NW,325,1.0,6.0,69,0.00,,,0.00,meteohub,2013-07-16 00:17:00,
2013-07-15 18:22:00,57.0,47.3,29.81,NW,316,0.0,9.0,70,0.00,,,0.00,meteohub,2013-07-16 00:22:00,
2013-07-15 18:27:00,56.8,47.5,29.81,NW,323,1.0,9.0,71,0.00,,,0.00,meteohub,2013-07-16 00:27:00,
2013-07-15 18:33:00,56.3,46.9,29.82,NW,319,0.0,9.0,71,0.00,,,0.00,meteohub,2013-07-16 00:33:00,
2013-07-15 18:38:00,55.8,46.9,29.82,SW,224,0.0,6.0,72,0.00,,,0.00,meteohub,2013-07-16 00:38:00,
2013-07-15 18:43:00,55.2,47.1,29.83,NW,316,0.0,6.0,74,0.00,,,0.00,meteohub,2013-07-16 00:43:00,
2013-07-15 18:48:00,54.9,46.8,29.83,North,358,5.0,6.0,74,0.00,,,0.00,meteohub,2013-07-16 00:48:00,
2013-07-15 18:53:00,54.5,46.4,29.82,NW,311,1.0,7.0,74,0.00,,,0.00,meteohub,2013-07-16 00:53:00,
2013-07-15 18:58:00,54.1,46.4,29.83,NW,321,1.0,7.0,75,0.00,,,0.00,meteohub,2013-07-16 00:58:00,
2013-07-15 19:04:00,53.8,46.4,29.83,NW,305,0.0,7.0,76,0.00,,,0.00,meteohub,2013-07-16 01:04:00,
2013-07-15 19:09:00,53.4,46.0,29.83,NW,318,0.0,7.0,76,0.00,,,0.00,meteohub,2013-07-16 01:09:00,
2013-07-15 19:14:00,53.2,46.2,29.83,NW,322,2.0,7.0,77,0.00,,,0.00,meteohub,2013-07-16 01:14:00,
2013-07-15 19:19:00,53.2,46.2,29.83,NW,318,0.0,3.0,77,0.00,,,0.00,meteohub,2013-07-16 01:19:00,
2013-07-15 19:24:00,53.1,46.4,29.83,NW,308,0.0,3.0,78,0.00,,,0.00,meteohub,2013-07-16 01:24:00,
2013-07-15 19:30:00,53.1,46.4,29.83,NW,307,0.0,2.0,78,0.00,,,0.00,meteohub,2013-07-16 01:30:00,
2013-07-15 19:35:00,52.9,46.6,29.83,WNW,291,0.0,1.0,79,0.00,,,0.00,meteohub,2013-07-16 01:35:00,
2013-07-15 19:41:00,52.3,45.7,29.84,NW,322,0.0,2.0,78,0.00,,,0.00,meteohub,2013-07-16 01:41:00,
2013-07-15 19:46:00,52.2,46.2,29.85,NW,309,0.0,2.0,80,0.00,,,0.00,meteohub,2013-07-16 01:46:00,
2013-07-15 19:51:00,51.6,46.0,29.85,NNW,331,0.0,2.0,81,0.00,,,0.00,meteohub,2013-07-16 01:51:00,
2013-07-15 19:57:00,51.4,46.2,29.85,NNW,332,0.0,3.0,82,0.00,,,0.00,meteohub,2013-07-16 01:57:00,
2013-07-15 20:02:00,51.3,46.6,29.85,NNW,329,0.0,3.0,84,0.00,,,0.00,meteohub,2013-07-16 02:02:00,
2013-07-15 20:07:00,51.1,46.8,29.86,NNW,329,0.0,0.0,85,0.00,,,0.00,meteohub,2013-07-16 02:07:00,
2013-07-15 20:12:00,50.9,46.9,29.86,NNW,329,0.0,0.0,86,0.00,,,0.00,meteohub,2013-07-16 02:12:00,
2013-07-15 20:17:00,50.9,46.9,29.86,NNW,329,0.0,0.0,86,0.00,,,0.00,meteohub,2013-07-16 02:17:00,
2013-07-15 20:22:00,50.7,46.4,29.86,NW,304,0.0,0.0,85,0.00,,,0.00,meteohub,2013-07-16 02:22:00,
2013-07-15 20:27:00,50.7,46.8,29.86,NW,304,0.0,0.0,86,0.00,,,0.00,meteohub,2013-07-16 02:27:00,
2013-07-15 20:33:00,50.7,46.4,29.87,NW,304,0.0,0.0,85,0.00,,,0.00,meteohub,2013-07-16 02:33:00,
2013-07-15 20:38:00,50.5,46.6,29.86,NW,304,0.0,0.0,86,0.00,,,0.00,meteohub,2013-07-16 02:38:00,
2013-07-15 20:44:00,50.5,46.2,29.87,NW,304,0.0,0.0,85,0.00,,,0.00,meteohub,2013-07-16 02:44:00,
2013-07-15 20:49:00,50.5,46.2,29.87,NW,304,0.0,0.0,85,0.00,,,0.00,meteohub,2013-07-16 02:49:00,
2013-07-15 20:54:00,50.4,46.4,29.87,NW,304,0.0,0.0,86,0.00,,,0.00,meteohub,2013-07-16 02:54:00,
2013-07-15 21:00:00,50.4,45.7,29.87,WNW,288,0.0,0.0,84,0.00,,,0.00,meteohub,2013-07-16 03:00:00,
2013-07-15 21:05:00,50.4,45.7,29.87,WNW,288,0.0,0.0,84,0.00,,,0.00,meteohub,2013-07-16 03:05:00,
2013-07-15 21:10:00,50.2,45.9,29.88,WNW,288,0.0,0.0,85,0.00,,,0.00,meteohub,2013-07-16 03:10:00,
2013-07-15 21:16:00,50.2,45.9,29.88,WNW,288,0.0,0.0,85,0.00,,,0.00,meteohub,2013-07-16 03:16:00,
2013-07-15 21:21:00,49.8,45.5,29.88,WNW,288,0.0,0.0,85,0.00,,,0.00,meteohub,2013-07-16 03:21:00,
2013-07-15 21:26:00,49.6,45.7,29.88,WNW,288,0.0,0.0,86,0.00,,,0.00,meteohub,2013-07-16 03:26:00,
2013-07-15 21:31:00,49.5,45.7,29.88,WNW,288,0.0,0.0,87,0.00,,,0.00,meteohub,2013-07-16 03:31:00,
2013-07-15 21:37:00,49.5,46.0,29.88,WNW,288,0.0,0.0,88,0.00,,,0.00,meteohub,2013-07-16 03:37:00,
2013-07-15 21:42:00,49.3,45.5,29.88,WNW,288,0.0,0.0,87,0.00,,,0.00,meteohub,2013-07-16 03:42:00,
2013-07-15 21:47:00,49.3,45.5,29.89,WNW,288,0.0,0.0,87,0.00,,,0.00,meteohub,2013-07-16 03:47:00,
2013-07-15 21:52:00,49.1,45.3,29.89,WNW,286,0.0,0.0,87,0.00,,,0.00,meteohub,2013-07-16 03:52:00,
2013-07-15 21:57:00,48.9,45.5,29.89,WNW,287,0.0,1.0,88,0.00,,,0.00,meteohub,2013-07-16 03:57:00,
2013-07-15 22:01:00,48.9,45.5,29.90,WNW,287,0.0,1.0,88,0.00,,,0.00,meteohub,2013-07-16 04:01:00,
2013-07-15 22:02:00,48.9,45.5,29.90,WNW,287,0.0,1.0,88,0.00,,,0.00,meteohub,2013-07-16 04:02:00,
2013-07-15 22:06:00,48.9,45.5,29.90,WNW,287,0.0,0.0,88,0.00,,,0.00,meteohub,2013-07-16 04:06:00,
2013-07-15 22:11:00,48.9,45.5,29.90,NW,314,0.0,0.0,88,0.00,,,0.00,meteohub,2013-07-16 04:11:00,
2013-07-15 22:16:00,48.9,45.1,29.90,NW,315,0.0,0.0,87,0.00,,,0.00,meteohub,2013-07-16 04:16:00,
2013-07-15 22:21:00,48.9,45.5,29.90,NW,315,0.0,0.0,88,0.00,,,0.00,meteohub,2013-07-16 04:21:00,
2013-07-15 22:26:00,48.7,45.3,29.90,NW,314,0.0,0.0,88,0.00,,,0.00,meteohub,2013-07-16 04:26:00,
2013-07-15 22:31:00,48.6,45.5,29.90,NW,315,0.0,0.0,89,0.00,,,0.00,meteohub,2013-07-16 04:31:00,
2013-07-15 22:36:00,48.4,45.3,29.90,NW,315,0.0,0.0,89,0.00,,,0.00,meteohub,2013-07-16 04:36:00,
2013-07-15 22:41:00,48.4,45.5,29.90,NNW,328,0.0,0.0,90,0.00,,,0.00,meteohub,2013-07-16 04:41:00,
2013-07-15 22:47:00,48.4,45.3,29.90,NW,326,0.0,1.0,89,0.00,,,0.00,meteohub,2013-07-16 04:47:00,
2013-07-15 22:52:00,48.6,45.7,29.90,NW,326,0.0,1.0,90,0.00,,,0.00,meteohub,2013-07-16 04:52:00,
2013-07-15 22:57:00,48.6,45.7,29.90,NW,326,0.0,1.0,90,0.00,,,0.00,meteohub,2013-07-16 04:57:00,
2013-07-15 23:02:00,48.7,45.3,29.91,NW,304,0.0,1.0,88,0.00,,,0.00,meteohub,2013-07-16 05:02:00,
2013-07-15 23:07:00,48.7,45.3,29.90,WNW,302,0.0,1.0,88,0.00,,,0.00,meteohub,2013-07-16 05:07:00,
2013-07-15 23:12:00,48.7,45.3,29.90,West,273,0.0,1.0,88,0.00,,,0.00,meteohub,2013-07-16 05:12:00,
2013-07-15 23:17:00,48.7,45.3,29.91,West,273,0.0,1.0,88,0.00,,,0.00,meteohub,2013-07-16 05:17:00,
2013-07-15 23:23:00,48.6,45.1,29.91,West,271,0.0,1.0,88,0.00,,,0.00,meteohub,2013-07-16 05:23:00,
2013-07-15 23:28:00,48.6,45.5,29.91,West,271,0.0,1.0,89,0.00,,,0.00,meteohub,2013-07-16 05:28:00,
2013-07-15 23:33:00,48.6,45.1,29.91,West,271,0.0,0.0,88,0.00,,,0.00,meteohub,2013-07-16 05:33:00,
2013-07-15 23:38:00,48.6,45.1,29.91,West,271,0.0,0.0,88,0.00,,,0.00,meteohub,2013-07-16 05:38:00,
2013-07-15 23:43:00,48.6,44.8,29.91,West,271,0.0,0.0,87,0.00,,,0.00,meteohub,2013-07-16 05:43:00,
2013-07-15 23:48:00,48.4,43.5,29.91,North,1,0.0,0.0,83,0.00,,,0.00,meteohub,2013-07-16 05:48:00,
2013-07-15 23:53:00,48.4,43.5,29.91,North,358,0.0,1.0,83,0.00,,,0.00,meteohub,2013-07-16 05:53:00,
2013-07-15 23:58:00,48.4,43.5,29.91,ENE,70,0.0,1.0,83,0.00,,,0.00,meteohub,2013-07-16 05:58:00,